createdAt,value
2023-01-07T00:00:58.225Z,985.06
2023-01-07T00:01:58.248Z,985.01
2023-01-07T00:02:58.278Z,985.06
2023-01-07T00:03:58.283Z,985.03
2023-01-07T00:04:58.206Z,985.03
2023-01-07T00:05:58.199Z,985.03
2023-01-07T00:06:58.161Z,985.02
2023-01-07T00:07:58.205Z,984.99
2023-01-07T00:08:58.151Z,985.01
2023-01-07T00:09:58.149Z,984.97
2023-01-07T00:10:58.130Z,984.97
2023-01-07T00:11:58.371Z,984.98
2023-01-07T00:12:58.154Z,984.99
2023-01-07T00:13:58.125Z,984.98
2023-01-07T00:14:58.109Z,985.05
2023-01-07T00:15:58.099Z,984.99
2023-01-07T00:16:58.077Z,985.00
2023-01-07T00:17:58.046Z,985.03
2023-01-07T00:18:58.056Z,985.01
2023-01-07T00:19:58.017Z,985.03
2023-01-07T00:20:58.025Z,985.02
2023-01-07T00:21:58.029Z,985.01
2023-01-07T00:22:58.244Z,985.01
2023-01-07T00:23:57.973Z,984.97
2023-01-07T00:24:57.991Z,984.96
2023-01-07T00:25:57.963Z,984.92
2023-01-07T00:26:57.960Z,984.91
2023-01-07T00:27:57.927Z,984.86
2023-01-07T00:28:57.954Z,984.83
2023-01-07T00:29:57.916Z,984.81
2023-01-07T00:30:57.962Z,984.81
2023-01-07T00:31:57.892Z,984.81
2023-01-07T00:32:58.197Z,984.79
2023-01-07T00:33:57.874Z,984.78
2023-01-07T00:34:57.866Z,984.80
2023-01-07T00:35:57.845Z,984.77
2023-01-07T00:36:57.856Z,984.76
2023-01-07T00:37:57.805Z,984.74
2023-01-07T00:38:57.828Z,984.75
2023-01-07T00:39:57.787Z,984.74
2023-01-07T00:40:57.893Z,984.75
2023-01-07T00:41:57.776Z,984.72
2023-01-07T00:42:57.787Z,984.66
2023-01-07T00:43:57.746Z,984.69
2023-01-07T00:44:57.762Z,984.63
2023-01-07T00:45:57.737Z,984.66
2023-01-07T00:46:57.791Z,984.70
2023-01-07T00:47:57.730Z,984.66
2023-01-07T00:48:57.718Z,984.63
2023-01-07T00:49:57.685Z,984.68
2023-01-07T00:50:57.700Z,984.68
2023-01-07T00:51:57.664Z,984.70
2023-01-07T00:52:58.040Z,984.69
2023-01-07T00:53:57.641Z,984.64
2023-01-07T00:54:57.657Z,984.64
2023-01-07T00:55:57.609Z,984.67
2023-01-07T00:56:57.635Z,984.70
2023-01-07T00:57:57.585Z,984.68
2023-01-07T00:58:57.619Z,984.68
2023-01-07T00:59:57.576Z,984.69
2023-01-07T01:00:57.704Z,984.70
2023-01-07T01:01:57.697Z,984.73
2023-01-07T01:02:57.613Z,984.70
2023-01-07T01:03:57.534Z,984.70
2023-01-07T01:04:57.546Z,984.71
2023-01-07T01:05:57.505Z,984.69
2023-01-07T01:06:57.512Z,984.66
2023-01-07T01:07:57.519Z,984.66
2023-01-07T01:08:57.530Z,984.67
2023-01-07T01:09:57.738Z,984.64
2023-01-07T01:10:57.468Z,984.62
2023-01-07T01:11:57.437Z,984.62
2023-01-07T01:12:57.473Z,984.60
2023-01-07T01:13:57.557Z,984.66
2023-01-07T01:14:57.612Z,984.65
2023-01-07T01:15:57.458Z,984.56
2023-01-07T01:16:57.586Z,984.60
2023-01-07T01:17:57.486Z,984.62
2023-01-07T01:18:57.396Z,984.61
2023-01-07T01:19:57.433Z,984.60
2023-01-07T01:20:57.720Z,984.60
2023-01-07T01:21:57.335Z,984.57
2023-01-07T01:22:57.373Z,984.60
2023-01-07T01:23:57.394Z,984.57
2023-01-07T01:24:57.334Z,984.59
2023-01-07T01:25:57.296Z,984.58
2023-01-07T01:26:57.336Z,984.57
2023-01-07T01:27:57.268Z,984.58
2023-01-07T01:28:57.277Z,984.52
2023-01-07T01:29:57.273Z,984.52
2023-01-07T01:30:57.299Z,984.54
2023-01-07T01:31:57.499Z,984.50
2023-01-07T01:32:57.225Z,984.54
2023-01-07T01:33:57.177Z,984.51
2023-01-07T01:34:57.193Z,984.52
2023-01-07T01:35:57.160Z,984.51
2023-01-07T01:36:57.179Z,984.53
2023-01-07T01:37:57.175Z,984.50
2023-01-07T01:38:57.147Z,984.48
2023-01-07T01:39:57.118Z,984.51
2023-01-07T01:40:57.134Z,984.51
2023-01-07T01:41:57.083Z,984.46
2023-01-07T01:42:57.110Z,984.47
2023-01-07T01:43:57.073Z,984.40
2023-01-07T01:44:57.082Z,984.43
2023-01-07T01:45:57.044Z,984.39
2023-01-07T01:46:57.137Z,984.37
2023-01-07T01:47:57.022Z,984.39
2023-01-07T01:48:57.035Z,984.39
2023-01-07T01:49:57.004Z,984.43
2023-01-07T01:50:57.033Z,984.42
2023-01-07T01:51:56.978Z,984.39
2023-01-07T01:52:56.999Z,984.39
2023-01-07T01:53:56.973Z,984.39
2023-01-07T01:54:57.232Z,984.41
2023-01-07T01:55:56.950Z,984.43
2023-01-07T01:56:56.943Z,984.34
2023-01-07T01:57:56.909Z,984.39
2023-01-07T01:58:56.923Z,984.44
2023-01-07T01:59:56.892Z,984.33
2023-01-07T02:00:57.039Z,984.38
2023-01-07T02:01:56.971Z,984.36
2023-01-07T02:02:56.868Z,984.36
2023-01-07T02:03:56.843Z,984.38
2023-01-07T02:04:56.896Z,984.34
2023-01-07T02:05:56.841Z,984.33
2023-01-07T02:06:56.828Z,984.33
2023-01-07T02:07:56.813Z,984.30
2023-01-07T02:08:56.802Z,984.28
2023-01-07T02:09:56.772Z,984.29
2023-01-07T02:10:56.782Z,984.28
2023-01-07T02:11:56.744Z,984.26
2023-01-07T02:12:56.742Z,984.28
2023-01-07T02:13:56.701Z,984.27
2023-01-07T02:14:56.722Z,984.25
2023-01-07T02:15:56.787Z,984.35
2023-01-07T02:16:56.715Z,984.30
2023-01-07T02:17:56.684Z,984.25
2023-01-07T02:18:56.761Z,984.27
2023-01-07T02:19:56.653Z,984.30
2023-01-07T02:20:56.673Z,984.28
2023-01-07T02:21:56.647Z,984.29
2023-01-07T02:22:56.656Z,984.30
2023-01-07T02:23:56.613Z,984.31
2023-01-07T02:24:56.621Z,984.26
2023-01-07T02:25:56.583Z,984.29
2023-01-07T02:26:56.623Z,984.21
2023-01-07T02:27:56.563Z,984.26
2023-01-07T02:28:56.576Z,984.24
2023-01-07T02:29:56.542Z,984.19
2023-01-07T02:30:56.586Z,984.23
2023-01-07T02:31:56.572Z,984.21
2023-01-07T02:32:56.532Z,984.22
2023-01-07T02:33:56.533Z,984.24
2023-01-07T02:34:56.501Z,984.20
2023-01-07T02:35:56.481Z,984.17
2023-01-07T02:36:56.492Z,984.19
2023-01-07T02:37:56.477Z,984.17
2023-01-07T02:38:56.495Z,984.22
2023-01-07T02:39:56.421Z,984.22
2023-01-07T02:40:56.445Z,984.20
2023-01-07T02:41:56.433Z,984.20
2023-01-07T02:42:56.431Z,984.19
2023-01-07T02:43:56.449Z,984.19
2023-01-07T02:44:56.400Z,984.16
2023-01-07T02:45:56.415Z,984.19
2023-01-07T02:46:56.374Z,984.18
2023-01-07T02:47:56.362Z,984.21
2023-01-07T02:48:56.368Z,984.17
2023-01-07T02:49:56.339Z,984.15
2023-01-07T02:50:56.330Z,984.20
2023-01-07T02:51:56.295Z,984.19
2023-01-07T02:52:56.385Z,984.18
2023-01-07T02:53:56.274Z,984.13
2023-01-07T02:54:56.335Z,984.14
2023-01-07T02:55:56.426Z,984.17
2023-01-07T02:56:56.260Z,984.13
2023-01-07T02:57:56.249Z,984.12
2023-01-07T02:58:56.240Z,984.11
2023-01-07T02:59:56.211Z,984.15
2023-01-07T03:00:56.325Z,984.21
2023-01-07T03:01:56.254Z,984.14
2023-01-07T03:02:56.198Z,984.11
2023-01-07T03:03:56.199Z,984.12
2023-01-07T03:04:56.179Z,984.15
2023-01-07T03:05:56.140Z,984.09
2023-01-07T03:06:56.162Z,984.09
2023-01-07T03:07:56.112Z,984.08
2023-01-07T03:08:56.117Z,984.04
2023-01-07T03:09:56.090Z,984.06
2023-01-07T03:10:56.124Z,984.04
2023-01-07T03:11:56.081Z,984.02
2023-01-07T03:12:56.077Z,984.04
2023-01-07T03:13:56.050Z,984.03
2023-01-07T03:14:56.059Z,984.00
2023-01-07T03:15:56.930Z,983.93
2023-01-07T03:16:56.039Z,983.93
2023-01-07T03:17:56.020Z,983.93
2023-01-07T03:18:56.027Z,983.89
2023-01-07T03:19:55.985Z,983.89
2023-01-07T03:20:56.005Z,983.89
2023-01-07T03:21:55.979Z,983.90
2023-01-07T03:22:56.000Z,983.90
2023-01-07T03:23:55.945Z,983.93
2023-01-07T03:24:55.945Z,983.88
2023-01-07T03:25:55.919Z,983.89
2023-01-07T03:26:55.940Z,983.92
2023-01-07T03:27:55.909Z,983.91
2023-01-07T03:28:55.918Z,983.95
2023-01-07T03:29:55.861Z,983.93
2023-01-07T03:30:55.871Z,983.95
2023-01-07T03:31:55.885Z,983.99
2023-01-07T03:32:55.881Z,983.97
2023-01-07T03:33:55.825Z,983.97
2023-01-07T03:34:55.832Z,983.97
2023-01-07T03:35:55.811Z,983.95
2023-01-07T03:36:55.820Z,983.97
2023-01-07T03:37:55.790Z,983.96
2023-01-07T03:38:55.789Z,983.88
2023-01-07T03:39:55.751Z,983.90
2023-01-07T03:40:55.760Z,983.82
2023-01-07T03:41:55.730Z,983.78
2023-01-07T03:42:55.739Z,983.77
2023-01-07T03:43:55.730Z,983.75
2023-01-07T03:44:55.736Z,983.75
2023-01-07T03:45:55.734Z,983.74
2023-01-07T03:46:55.689Z,983.72
2023-01-07T03:47:55.676Z,983.74
2023-01-07T03:48:55.680Z,983.77
2023-01-07T03:49:55.656Z,983.77
2023-01-07T03:50:55.648Z,983.70
2023-01-07T03:51:55.610Z,983.66
2023-01-07T03:52:55.630Z,983.70
2023-01-07T03:53:55.598Z,983.68
2023-01-07T03:54:55.625Z,983.69
2023-01-07T03:55:55.618Z,983.66
2023-01-07T03:56:55.815Z,983.67
2023-01-07T03:57:55.569Z,983.62
2023-01-07T03:58:55.539Z,983.66
2023-01-07T03:59:55.550Z,983.65
2023-01-07T04:00:55.652Z,983.64
2023-01-07T04:01:55.614Z,983.64
2023-01-07T04:02:55.501Z,983.59
2023-01-07T04:03:55.506Z,983.59
2023-01-07T04:04:55.470Z,983.60
2023-01-07T04:05:55.487Z,983.55
2023-01-07T04:06:55.453Z,983.60
2023-01-07T04:07:55.465Z,983.54
2023-01-07T04:08:55.422Z,983.56
2023-01-07T04:09:55.440Z,983.62
2023-01-07T04:10:55.427Z,983.61
2023-01-07T04:11:55.397Z,983.57
2023-01-07T04:12:55.412Z,983.53
2023-01-07T04:13:55.396Z,983.57
2023-01-07T04:14:55.960Z,983.52
2023-01-07T04:15:55.346Z,983.52
2023-01-07T04:16:55.465Z,983.53
2023-01-07T04:17:55.657Z,983.51
2023-01-07T04:18:55.330Z,983.50
2023-01-07T04:19:55.309Z,983.51
2023-01-07T04:20:55.317Z,983.52
2023-01-07T04:21:55.276Z,983.51
2023-01-07T04:22:55.268Z,983.49
2023-01-07T04:23:55.287Z,983.41
2023-01-07T04:24:55.265Z,983.38
2023-01-07T04:25:55.237Z,983.40
2023-01-07T04:26:55.256Z,983.36
2023-01-07T04:27:55.207Z,983.32
2023-01-07T04:28:55.224Z,983.34
2023-01-07T04:29:55.219Z,983.32
2023-01-07T04:30:55.221Z,983.33
2023-01-07T04:31:55.189Z,983.26
2023-01-07T04:32:55.151Z,983.28
2023-01-07T04:33:55.168Z,983.30
2023-01-07T04:34:55.127Z,983.24
2023-01-07T04:35:55.136Z,983.24
2023-01-07T04:36:55.110Z,983.27
2023-01-07T04:37:55.119Z,983.27
2023-01-07T04:38:55.090Z,983.25
2023-01-07T04:39:55.104Z,983.25
2023-01-07T04:40:55.072Z,983.19
2023-01-07T04:41:55.076Z,983.19
2023-01-07T04:42:55.047Z,983.17
2023-01-07T04:43:55.054Z,983.21
2023-01-07T04:44:55.033Z,983.13
2023-01-07T04:45:55.056Z,983.17
2023-01-07T04:46:54.988Z,983.15
2023-01-07T04:47:54.997Z,983.10
2023-01-07T04:48:54.976Z,983.09
2023-01-07T04:49:55.138Z,983.03
2023-01-07T04:50:54.950Z,983.04
2023-01-07T04:51:54.966Z,983.00
2023-01-07T04:52:54.924Z,983.05
2023-01-07T04:53:54.936Z,983.04
2023-01-07T04:54:54.904Z,983.05
2023-01-07T04:55:54.924Z,983.05
2023-01-07T04:56:54.876Z,983.05
2023-01-07T04:57:55.237Z,983.04
2023-01-07T04:58:54.872Z,983.05
2023-01-07T04:59:54.880Z,983.07
2023-01-07T05:00:54.920Z,983.00
2023-01-07T05:01:54.963Z,983.04
2023-01-07T05:02:54.823Z,983.06
2023-01-07T05:03:54.829Z,983.03
2023-01-07T05:04:54.857Z,983.00
2023-01-07T05:05:54.811Z,983.01
2023-01-07T05:06:54.779Z,982.97
2023-01-07T05:07:54.817Z,982.99
2023-01-07T05:08:54.756Z,982.96
2023-01-07T05:09:54.785Z,982.92
2023-01-07T05:10:54.725Z,982.96
2023-01-07T05:11:54.738Z,982.97
2023-01-07T05:12:54.728Z,982.92
2023-01-07T05:13:55.237Z,982.90
2023-01-07T05:14:54.679Z,982.88
2023-01-07T05:15:54.707Z,982.91
2023-01-07T05:16:54.717Z,982.92
2023-01-07T05:17:54.689Z,982.87
2023-01-07T05:18:54.756Z,982.83
2023-01-07T05:19:54.645Z,982.87
2023-01-07T05:20:54.615Z,982.84
2023-01-07T05:21:54.627Z,982.87
2023-01-07T05:22:54.617Z,982.82
2023-01-07T05:23:54.627Z,982.81
2023-01-07T05:24:54.565Z,982.81
2023-01-07T05:25:54.584Z,982.82
2023-01-07T05:26:54.552Z,982.81
2023-01-07T05:27:54.614Z,982.82
2023-01-07T05:28:54.523Z,982.85
2023-01-07T05:29:54.538Z,982.82
2023-01-07T05:30:54.584Z,982.83
2023-01-07T05:31:54.515Z,982.84
2023-01-07T05:32:54.479Z,982.84
2023-01-07T05:33:54.492Z,982.81
2023-01-07T05:34:54.471Z,982.79
2023-01-07T05:35:54.472Z,982.84
2023-01-07T05:36:54.436Z,982.80
2023-01-07T05:37:54.466Z,982.71
2023-01-07T05:38:55.236Z,982.71
2023-01-07T05:39:55.224Z,982.72
2023-01-07T05:40:54.386Z,982.66
2023-01-07T05:41:54.408Z,982.66
2023-01-07T05:42:54.360Z,982.66
2023-01-07T05:43:54.400Z,982.63
2023-01-07T05:44:54.409Z,982.61
2023-01-07T05:45:54.394Z,982.66
2023-01-07T05:46:54.316Z,982.56
2023-01-07T05:47:54.353Z,982.54
2023-01-07T05:48:54.306Z,982.57
2023-01-07T05:49:54.388Z,982.60
2023-01-07T05:50:54.288Z,982.61
2023-01-07T05:51:54.285Z,982.59
2023-01-07T05:52:54.245Z,982.57
2023-01-07T05:53:54.273Z,982.58
2023-01-07T05:54:54.394Z,982.59
2023-01-07T05:55:54.259Z,982.54
2023-01-07T05:56:54.223Z,982.56
2023-01-07T05:57:54.216Z,982.55
2023-01-07T05:58:54.187Z,982.57
2023-01-07T05:59:54.425Z,982.51
2023-01-07T06:00:54.284Z,982.55
2023-01-07T06:01:54.175Z,982.49
2023-01-07T06:02:54.144Z,982.52
2023-01-07T06:03:54.213Z,982.49
2023-01-07T06:04:54.171Z,982.50
2023-01-07T06:05:54.138Z,982.50
2023-01-07T06:06:54.110Z,982.45
2023-01-07T06:07:54.116Z,982.42
2023-01-07T06:08:54.087Z,982.41
2023-01-07T06:09:54.077Z,982.44
2023-01-07T06:10:54.048Z,982.41
2023-01-07T06:11:54.070Z,982.44
2023-01-07T06:12:54.043Z,982.41
2023-01-07T06:13:54.035Z,982.40
2023-01-07T06:14:54.002Z,982.47
2023-01-07T06:15:54.035Z,982.43
2023-01-07T06:16:53.985Z,982.39
2023-01-07T06:17:54.003Z,982.40
2023-01-07T06:18:53.958Z,982.43
2023-01-07T06:19:53.985Z,982.43
2023-01-07T06:20:54.066Z,982.38
2023-01-07T06:21:53.958Z,982.39
2023-01-07T06:22:53.945Z,982.33
2023-01-07T06:23:53.961Z,982.35
2023-01-07T06:24:53.901Z,982.34
2023-01-07T06:25:53.925Z,982.30
2023-01-07T06:26:53.897Z,982.33
2023-01-07T06:27:53.934Z,982.31
2023-01-07T06:28:53.855Z,982.35
2023-01-07T06:29:53.876Z,982.37
2023-01-07T06:30:53.857Z,982.37
2023-01-07T06:31:53.853Z,982.36
2023-01-07T06:32:53.796Z,982.33
2023-01-07T06:33:54.030Z,982.29
2023-01-07T06:34:53.789Z,982.28
2023-01-07T06:35:53.785Z,982.29
2023-01-07T06:36:53.784Z,982.27
2023-01-07T06:37:53.765Z,982.24
2023-01-07T06:38:53.724Z,982.24
2023-01-07T06:39:53.795Z,982.26
2023-01-07T06:40:53.717Z,982.32
2023-01-07T06:41:53.734Z,982.25
2023-01-07T06:42:53.687Z,982.21
2023-01-07T06:43:53.692Z,982.20
2023-01-07T06:44:53.670Z,982.21
2023-01-07T06:45:53.675Z,982.21
2023-01-07T06:46:53.632Z,982.23
2023-01-07T06:47:53.644Z,982.21
2023-01-07T06:48:53.623Z,982.18
2023-01-07T06:49:53.642Z,982.21
2023-01-07T06:50:53.592Z,982.19
2023-01-07T06:51:53.602Z,982.17
2023-01-07T06:52:53.581Z,982.15
2023-01-07T06:53:53.577Z,982.14
2023-01-07T06:54:53.550Z,982.17
2023-01-07T06:55:53.571Z,982.13
2023-01-07T06:56:53.522Z,982.14
2023-01-07T06:57:53.532Z,982.12
2023-01-07T06:58:53.512Z,982.12
2023-01-07T06:59:53.541Z,982.11
2023-01-07T07:00:54.045Z,982.09
2023-01-07T07:01:54.069Z,982.12
2023-01-07T07:02:53.525Z,982.14
2023-01-07T07:03:53.486Z,982.07
2023-01-07T07:04:53.460Z,982.11
2023-01-07T07:05:54.261Z,982.14
2023-01-07T07:06:53.440Z,982.10
2023-01-07T07:07:53.431Z,982.11
2023-01-07T07:08:53.389Z,982.10
2023-01-07T07:09:53.401Z,982.13
2023-01-07T07:10:53.386Z,982.07
2023-01-07T07:11:53.401Z,982.06
2023-01-07T07:12:53.376Z,982.07
2023-01-07T07:13:53.373Z,982.12
2023-01-07T07:14:53.321Z,982.08
2023-01-07T07:15:53.421Z,982.06
2023-01-07T07:16:53.304Z,982.04
2023-01-07T07:17:53.333Z,982.01
2023-01-07T07:18:53.267Z,982.01
2023-01-07T07:19:53.293Z,981.99
2023-01-07T07:20:53.256Z,982.01
2023-01-07T07:21:53.262Z,982.00
2023-01-07T07:22:53.222Z,982.03
2023-01-07T07:23:53.275Z,982.01
2023-01-07T07:24:53.219Z,982.00
2023-01-07T07:25:53.223Z,982.01
2023-01-07T07:26:53.195Z,981.99
2023-01-07T07:27:53.190Z,981.98
2023-01-07T07:28:53.172Z,981.98
2023-01-07T07:29:53.188Z,981.98
2023-01-07T07:30:53.165Z,981.99
2023-01-07T07:31:53.152Z,981.98
2023-01-07T07:32:53.139Z,981.96
2023-01-07T07:33:53.135Z,981.97
2023-01-07T07:34:53.109Z,981.98
2023-01-07T07:35:53.130Z,981.97
2023-01-07T07:36:53.067Z,982.00
2023-01-07T07:37:53.082Z,981.97
2023-01-07T07:38:53.044Z,981.97
2023-01-07T07:39:53.111Z,981.97
2023-01-07T07:40:53.044Z,981.94
2023-01-07T07:41:53.394Z,981.96
2023-01-07T07:43:10.752Z,981.96
2023-01-07T07:43:54.011Z,981.95
2023-01-07T07:44:52.981Z,981.92
2023-01-07T07:45:53.016Z,981.94
2023-01-07T07:46:53.101Z,981.89
2023-01-07T07:47:52.974Z,981.95
2023-01-07T07:48:52.975Z,981.92
2023-01-07T07:49:52.969Z,981.93
2023-01-07T07:50:52.919Z,981.90
2023-01-07T07:51:52.931Z,981.89
2023-01-07T07:52:52.889Z,981.83
2023-01-07T07:53:52.926Z,981.83
2023-01-07T07:54:52.871Z,981.85
2023-01-07T07:55:52.881Z,981.83
2023-01-07T07:56:52.878Z,981.82
2023-01-07T07:57:52.859Z,981.83
2023-01-07T07:58:52.823Z,981.81
2023-01-07T07:59:52.830Z,981.80
2023-01-07T08:00:52.904Z,981.79
2023-01-07T08:01:52.870Z,981.76
2023-01-07T08:02:52.819Z,981.77
2023-01-07T08:03:52.789Z,981.73
2023-01-07T08:04:52.798Z,981.72
2023-01-07T08:05:52.789Z,981.70
2023-01-07T08:06:52.739Z,981.68
2023-01-07T08:07:52.750Z,981.67
2023-01-07T08:08:52.741Z,981.60
2023-01-07T08:09:52.729Z,981.62
2023-01-07T08:10:52.696Z,981.58
2023-01-07T08:11:52.727Z,981.63
2023-01-07T08:12:52.668Z,981.62
2023-01-07T08:13:52.687Z,981.58
2023-01-07T08:14:52.660Z,981.60
2023-01-07T08:15:52.687Z,981.62
2023-01-07T08:16:52.628Z,981.60
2023-01-07T08:17:52.649Z,981.61
2023-01-07T08:18:52.608Z,981.62
2023-01-07T08:19:52.613Z,981.59
2023-01-07T08:20:52.578Z,981.61
2023-01-07T08:21:52.617Z,981.60
2023-01-07T08:22:52.590Z,981.64
2023-01-07T08:23:52.569Z,981.61
2023-01-07T08:24:52.527Z,981.64
2023-01-07T08:25:52.569Z,981.59
2023-01-07T08:26:52.528Z,981.58
2023-01-07T08:27:52.527Z,981.55
2023-01-07T08:28:52.488Z,981.57
2023-01-07T08:29:52.509Z,981.58
2023-01-07T08:30:52.463Z,981.58
2023-01-07T08:31:52.475Z,981.55
2023-01-07T08:32:52.462Z,981.55
2023-01-07T08:33:52.468Z,981.52
2023-01-07T08:34:52.418Z,981.53
2023-01-07T08:35:52.436Z,981.48
2023-01-07T08:36:52.403Z,981.47
2023-01-07T08:37:52.407Z,981.46
2023-01-07T08:38:52.384Z,981.42
2023-01-07T08:39:52.397Z,981.44
2023-01-07T08:40:52.355Z,981.37
2023-01-07T08:41:52.357Z,981.40
2023-01-07T08:42:52.343Z,981.35
2023-01-07T08:43:52.594Z,981.39
2023-01-07T08:44:52.318Z,981.37
2023-01-07T08:45:52.318Z,981.34
2023-01-07T08:46:52.348Z,981.34
2023-01-07T08:47:52.281Z,981.29
2023-01-07T08:48:52.305Z,981.31
2023-01-07T08:49:52.354Z,981.24
2023-01-07T08:50:52.331Z,981.25
2023-01-07T08:51:52.257Z,981.24
2023-01-07T08:52:52.238Z,981.22
2023-01-07T08:53:52.196Z,981.25
2023-01-07T08:54:52.231Z,981.22
2023-01-07T08:55:52.184Z,981.20
2023-01-07T08:56:52.192Z,981.18
2023-01-07T08:57:52.183Z,981.19
2023-01-07T08:58:52.167Z,981.20
2023-01-07T08:59:52.134Z,981.15
2023-01-07T09:00:52.257Z,981.13
2023-01-07T09:01:52.250Z,981.13
2023-01-07T09:02:52.186Z,981.14
2023-01-07T09:03:52.218Z,981.14
2023-01-07T09:04:52.121Z,981.15
2023-01-07T09:05:52.082Z,981.06
2023-01-07T09:06:52.347Z,981.06
2023-01-07T09:07:52.062Z,981.03
2023-01-07T09:08:52.107Z,981.04
2023-01-07T09:09:52.025Z,981.01
2023-01-07T09:10:52.041Z,981.02
2023-01-07T09:11:52.022Z,981.06
2023-01-07T09:12:52.019Z,981.10
2023-01-07T09:13:51.984Z,981.06
2023-01-07T09:14:51.994Z,981.05
2023-01-07T09:15:51.964Z,981.07
2023-01-07T09:16:51.996Z,981.05
2023-01-07T09:17:51.940Z,981.07
2023-01-07T09:18:51.945Z,981.01
2023-01-07T09:19:51.928Z,981.07
2023-01-07T09:20:51.923Z,981.03
2023-01-07T09:21:51.885Z,981.06
2023-01-07T09:22:51.903Z,981.06
2023-01-07T09:23:52.154Z,981.06
2023-01-07T09:24:51.876Z,981.06
2023-01-07T09:25:51.857Z,981.04
2023-01-07T09:26:51.850Z,981.05
2023-01-07T09:27:51.835Z,981.03
2023-01-07T09:28:51.835Z,981.05
2023-01-07T09:29:51.811Z,981.06
2023-01-07T09:30:51.811Z,981.05
2023-01-07T09:31:51.838Z,981.04
2023-01-07T09:32:51.804Z,981.01
2023-01-07T09:33:51.770Z,981.07
2023-01-07T09:34:51.835Z,981.05
2023-01-07T09:35:51.739Z,981.02
2023-01-07T09:36:51.745Z,981.01
2023-01-07T09:37:51.764Z,981.00
2023-01-07T09:38:51.735Z,981.02
2023-01-07T09:39:51.695Z,981.07
2023-01-07T09:40:51.716Z,981.00
2023-01-07T09:41:51.664Z,981.02
2023-01-07T09:42:51.681Z,980.98
2023-01-07T09:44:00.506Z,981.03
2023-01-07T09:44:53.089Z,981.06
2023-01-07T09:45:51.683Z,980.99
2023-01-07T09:46:51.660Z,981.05
2023-01-07T09:47:51.631Z,980.98
2023-01-07T09:48:51.621Z,980.97
2023-01-07T09:49:51.582Z,980.99
2023-01-07T09:50:51.947Z,980.98
2023-01-07T09:51:51.605Z,980.92
2023-01-07T09:52:51.564Z,980.94
2023-01-07T09:53:51.559Z,980.91
2023-01-07T09:54:51.536Z,980.94
2023-01-07T09:56:13.961Z,980.85
2023-01-07T09:56:52.515Z,980.92
2023-01-07T09:57:51.504Z,980.81
2023-01-07T09:58:51.534Z,980.86
2023-01-07T09:59:51.473Z,980.92
2023-01-07T10:00:51.507Z,980.91
2023-01-07T10:01:51.451Z,980.88
2023-01-07T10:02:52.718Z,980.95
2023-01-07T10:03:51.472Z,980.87
2023-01-07T10:04:51.500Z,980.93
2023-01-07T10:05:51.451Z,980.89
2023-01-07T10:06:51.658Z,980.86
2023-01-07T10:07:51.415Z,980.82
2023-01-07T10:08:51.473Z,980.86
2023-01-07T10:09:51.399Z,980.84
2023-01-07T10:10:51.370Z,980.82
2023-01-07T10:11:51.365Z,980.83
2023-01-07T10:12:51.333Z,980.81
2023-01-07T10:13:51.305Z,980.81
2023-01-07T10:14:51.324Z,980.81
2023-01-07T10:15:51.323Z,980.76
2023-01-07T10:16:51.431Z,980.73
2023-01-07T10:17:51.322Z,980.78
2023-01-07T10:18:51.305Z,980.73
2023-01-07T10:19:51.243Z,980.72
2023-01-07T10:20:51.248Z,980.70
2023-01-07T10:21:51.206Z,980.76
2023-01-07T10:22:51.225Z,980.75
2023-01-07T10:23:51.194Z,980.69
2023-01-07T10:24:51.242Z,980.64
2023-01-07T10:25:51.183Z,980.62
2023-01-07T10:26:51.194Z,980.66
2023-01-07T10:27:51.152Z,980.57
2023-01-07T10:28:51.182Z,980.57
2023-01-07T10:29:51.113Z,980.52
2023-01-07T10:30:51.123Z,980.51
2023-01-07T10:31:51.116Z,980.46
2023-01-07T10:32:51.112Z,980.45
2023-01-07T10:33:51.064Z,980.42
2023-01-07T10:34:51.064Z,980.39
2023-01-07T10:35:51.060Z,980.44
2023-01-07T10:36:51.053Z,980.43
2023-01-07T10:37:51.020Z,980.36
2023-01-07T10:38:51.062Z,980.37
2023-01-07T10:39:51.046Z,980.33
2023-01-07T10:40:51.036Z,980.29
2023-01-07T10:41:51.002Z,980.34
2023-01-07T10:42:50.982Z,980.33
2023-01-07T10:43:50.957Z,980.32
2023-01-07T10:44:50.962Z,980.27
2023-01-07T10:45:51.183Z,980.23
2023-01-07T10:46:50.969Z,980.24
2023-01-07T10:47:50.895Z,980.25
2023-01-07T10:48:50.951Z,980.24
2023-01-07T10:49:50.890Z,980.14
2023-01-07T10:50:50.934Z,980.12
2023-01-07T10:51:50.969Z,980.11
2023-01-07T10:52:50.882Z,980.04
2023-01-07T10:53:50.828Z,980.01
2023-01-07T10:54:50.857Z,980.02
2023-01-07T10:55:50.831Z,980.05
2023-01-07T10:56:50.832Z,980.03
2023-01-07T10:57:50.821Z,980.01
2023-01-07T10:58:50.811Z,979.98
2023-01-07T10:59:50.799Z,979.91
2023-01-07T11:00:50.974Z,979.93
2023-01-07T11:01:50.931Z,979.85
2023-01-07T11:02:50.836Z,979.87
2023-01-07T11:03:51.309Z,979.82
2023-01-07T11:04:50.764Z,979.88
2023-01-07T11:05:50.939Z,979.81
2023-01-07T11:06:50.744Z,979.79
2023-01-07T11:07:50.726Z,979.78
2023-01-07T11:08:50.701Z,979.77
2023-01-07T11:09:50.651Z,979.79
2023-01-07T11:10:50.702Z,979.77
2023-01-07T11:11:50.612Z,979.73
2023-01-07T11:12:50.632Z,979.72
2023-01-07T11:13:50.622Z,979.73
2023-01-07T11:14:50.621Z,979.75
2023-01-07T11:15:50.623Z,979.65
2023-01-07T11:16:50.650Z,979.71
2023-01-07T11:17:50.549Z,979.71
2023-01-07T11:18:50.577Z,979.62
2023-01-07T11:19:50.544Z,979.61
2023-01-07T11:20:50.547Z,979.60
2023-01-07T11:21:50.687Z,979.60
2023-01-07T11:22:50.548Z,979.54
2023-01-07T11:23:50.485Z,979.56
2023-01-07T11:24:50.499Z,979.52
2023-01-07T11:25:50.526Z,979.53
2023-01-07T11:26:50.514Z,979.53
2023-01-07T11:27:50.444Z,979.51
2023-01-07T11:28:50.464Z,979.50
2023-01-07T11:29:51.482Z,979.50
2023-01-07T11:30:50.429Z,979.45
2023-01-07T11:31:50.434Z,979.46
2023-01-07T11:32:50.429Z,979.42
2023-01-07T11:34:03.748Z,979.39
2023-01-07T11:34:51.376Z,979.33
2023-01-07T11:35:50.351Z,979.32
2023-01-07T11:36:50.352Z,979.28
2023-01-07T11:37:50.363Z,979.29
2023-01-07T11:38:50.333Z,979.29
2023-01-07T11:39:50.352Z,979.28
2023-01-07T11:40:50.398Z,979.25
2023-01-07T11:41:50.270Z,979.25
2023-01-07T11:42:50.291Z,979.27
2023-01-07T11:43:50.364Z,979.23
2023-01-07T11:44:50.325Z,979.18
2023-01-07T11:46:19.322Z,979.21
2023-01-07T11:46:51.547Z,979.12
2023-01-07T11:47:50.291Z,979.11
2023-01-07T11:48:50.250Z,979.18
2023-01-07T11:49:50.242Z,979.17
2023-01-07T11:50:50.210Z,979.10
2023-01-07T11:51:50.193Z,979.11
2023-01-07T11:52:50.161Z,979.02
2023-01-07T11:53:50.141Z,979.03
2023-01-07T11:54:50.171Z,979.00
2023-01-07T11:55:50.168Z,978.92
2023-01-07T11:56:50.139Z,978.97
2023-01-07T11:57:50.090Z,978.96
2023-01-07T11:58:50.121Z,978.97
2023-01-07T11:59:50.087Z,978.91
2023-01-07T12:00:50.140Z,978.95
2023-01-07T12:01:50.050Z,978.93
2023-01-07T12:02:50.127Z,978.91
2023-01-07T12:03:50.107Z,978.82
2023-01-07T12:04:50.084Z,978.78
2023-01-07T12:05:50.037Z,978.72
2023-01-07T12:06:50.043Z,978.79
2023-01-07T12:07:50.005Z,978.67
2023-01-07T12:08:50.038Z,978.67
2023-01-07T12:09:49.964Z,978.62
2023-01-07T12:10:50.029Z,978.55
2023-01-07T12:11:49.939Z,978.62
2023-01-07T12:12:49.982Z,978.53
2023-01-07T12:13:49.969Z,978.57
2023-01-07T12:14:49.940Z,978.54
2023-01-07T12:15:49.997Z,978.50
2023-01-07T12:16:49.978Z,978.43
2023-01-07T12:17:49.905Z,978.42
2023-01-07T12:18:49.899Z,978.43
2023-01-07T12:19:49.840Z,978.37
2023-01-07T12:20:49.894Z,978.34
2023-01-07T12:21:49.841Z,978.29
2023-01-07T12:22:49.831Z,978.28
2023-01-07T12:23:49.789Z,978.24
2023-01-07T12:24:49.821Z,978.21
2023-01-07T12:25:49.778Z,978.20
2023-01-07T12:26:49.837Z,978.16
2023-01-07T12:27:49.799Z,978.19
2023-01-07T12:28:49.801Z,978.18